X  Κλείσε Στοιχεία αεροπορικών μετεωρολογικών δεδομένων METAR     KSDL Scottsdale Airport
θερμοκρασία
88°F θερμοκρασία
61°F Σημείο δρόσου
40% Υγρασία



Ανεμος
0 MPH
0 KM/H
0 M/S
0 KTS



Ηρεμία
Vóreios
Τρέχουσες συνθήκες

Σαφή Σαφή
πίεση 1016.62 (hPa) - 30.02 (inHg)
Ορατότητα 9.9 (μίλι) - 16 (km)
Aεροδρόμιο
Κωδικός αεροδρομίου KSDL

Τοποθεσία: Scottsdale Airport
Απόσταση: 14 (mi)

Metar:
KSDL 181553Z 00000KT 10SM CLR 31/16 A3002 RMK AO2 SLP135 T03060156

ώρα: 2021-09-18 08:53 MST